Huvudsida
METAR-TAF:

METAR-TAF

Flygplatser :

Uleåborgs flygplats

Uleåborg, Finland

latitud: 64-56N, longitud: 025-22E, höjd: 12 m

Aktuellt väderrapport

Denna rapport gjordes för 10 minuter sedan, klockan 19:20 UTC
Vind 6 kt från väst/nordväst
Temperatur 17°C
Fuktighet 52%
Tryck 1014 hPa
Sikt 10 km eller mer

METAR: EFOU 251920Z AUTO 29006KT 9999 FEW097/// 17/07 Q1014

Tid: 22:30 (19:30 UTC)

Väderprognos

Denna rapport gjordes för 2 timmar och 6 minuter sedan, klockan 17:24 UTC
Prognos gäller från 25 kl. 18 UTC till 26 kl. 18 UTC
Vind 5 kt från väst/nordväst
Sikt 10 km eller mer
Inga moln under 1 500 m eller inga cumulonimbus

TAF: EFOU 251724Z 2518/2618 29005KT CAVOK

Aktuella väderrapporter och prognoser från 4000 flygplatser (METAR- och TAF-rapporter).

De tillgängliga stationerna syns som gula och röda prickar på kartan.

För musen över prickarna för att se namnen på stationerna.

Klicka sedan för att få väderrapporter och prognoser.

För att ändra kartan: Klicka på de gröna knapparna med ett svart kors på för att zooma in; den gröna knappen med ett streck på för att zooma ut; eller på de gröna pilarna för angränsande kartor.


METAR-TAF: